sensor_id;sensor_type;location;lat;lon;timestamp;P1;durP1;ratioP1;P2;durP2;ratioP2
58308;SDS011;44117;57.142;24.826;2022-12-28T00:01:48;16.83;;;4.10;;
58308;SDS011;44117;57.142;24.826;2022-12-28T00:04:15;24.52;;;6.68;;
58308;SDS011;44117;57.142;24.826;2022-12-28T00:06:43;14.48;;;5.30;;
58308;SDS011;44117;57.142;24.826;2022-12-28T00:09:11;18.08;;;5.05;;
58308;SDS011;44117;57.142;24.826;2022-12-28T00:11:38;22.67;;;5.40;;
58308;SDS011;44117;57.142;24.826;2022-12-28T00:14:05;20.05;;;4.70;;
58308;SDS011;44117;57.142;24.826;2022-12-28T00:16:37;17.30;;;6.28;;
58308;SDS011;44117;57.142;24.826;2022-12-28T00:19:09;14.30;;;5.10;;
58308;SDS011;44117;57.142;24.826;2022-12-28T00:21:41;17.42;;;3.95;;
58308;SDS011;44117;57.142;24.826;2022-12-28T00:24:14;18.08;;;4.18;;
58308;SDS011;44117;57.142;24.826;2022-12-28T00:26:45;21.60;;;3.85;;
58308;SDS011;44117;57.142;24.826;2022-12-28T00:29:12;16.50;;;3.90;;
58308;SDS011;44117;57.142;24.826;2022-12-28T00:31:40;20.70;;;4.25;;
58308;SDS011;44117;57.142;24.826;2022-12-28T00:34:07;16.13;;;5.22;;
58308;SDS011;44117;57.142;24.826;2022-12-28T00:36:34;15.90;;;3.80;;
58308;SDS011;44117;57.142;24.826;2022-12-28T00:39:22;17.38;;;4.05;;
58308;SDS011;44117;57.142;24.826;2022-12-28T00:41:49;14.40;;;5.78;;
58308;SDS011;44117;57.142;24.826;2022-12-28T00:44:16;17.23;;;5.68;;
58308;SDS011;44117;57.142;24.826;2022-12-28T00:46:43;17.17;;;7.38;;
58308;SDS011;44117;57.142;24.826;2022-12-28T00:49:11;29.17;;;11.65;;
58308;SDS011;44117;57.142;24.826;2022-12-28T00:51:38;17.75;;;4.60;;
58308;SDS011;44117;57.142;24.826;2022-12-28T00:54:05;17.13;;;5.28;;
58308;SDS011;44117;57.142;24.826;2022-12-28T00:56:33;15.70;;;5.78;;
58308;SDS011;44117;57.142;24.826;2022-12-28T00:59:00;20.88;;;8.32;;
58308;SDS011;44117;57.142;24.826;2022-12-28T01:01:27;17.55;;;5.05;;
58308;SDS011;44117;57.142;24.826;2022-12-28T01:03:55;13.45;;;4.45;;
58308;SDS011;44117;57.142;24.826;2022-12-28T01:06:23;19.25;;;6.25;;
58308;SDS011;44117;57.142;24.826;2022-12-28T01:08:52;20.67;;;6.70;;
58308;SDS011;44117;57.142;24.826;2022-12-28T01:11:21;25.23;;;7.82;;
58308;SDS011;44117;57.142;24.826;2022-12-28T01:13:54;14.77;;;4.28;;
58308;SDS011;44117;57.142;24.826;2022-12-28T01:16:24;16.27;;;5.22;;
58308;SDS011;44117;57.142;24.826;2022-12-28T01:18:56;17.40;;;3.73;;
58308;SDS011;44117;57.142;24.826;2022-12-28T01:21:27;14.90;;;4.38;;
58308;SDS011;44117;57.142;24.826;2022-12-28T01:23:57;17.20;;;3.80;;
58308;SDS011;44117;57.142;24.826;2022-12-28T01:26:26;13.38;;;3.92;;
58308;SDS011;44117;57.142;24.826;2022-12-28T01:28:55;11.77;;;4.30;;
58308;SDS011;44117;57.142;24.826;2022-12-28T01:31:23;15.35;;;5.75;;
58308;SDS011;44117;57.142;24.826;2022-12-28T01:33:51;20.13;;;5.63;;
58308;SDS011;44117;57.142;24.826;2022-12-28T01:36:20;21.25;;;6.60;;
58308;SDS011;44117;57.142;24.826;2022-12-28T01:38:53;20.13;;;6.22;;
58308;SDS011;44117;57.142;24.826;2022-12-28T01:41:22;20.83;;;5.10;;
58308;SDS011;44117;57.142;24.826;2022-12-28T01:49:16;18.60;;;4.47;;
58308;SDS011;44117;57.142;24.826;2022-12-28T01:51:47;13.15;;;4.22;;
58308;SDS011;44117;57.142;24.826;2022-12-28T01:54:21;12.15;;;4.72;;
58308;SDS011;44117;57.142;24.826;2022-12-28T01:56:52;13.27;;;4.78;;
58308;SDS011;44117;57.142;24.826;2022-12-28T01:59:20;14.77;;;3.70;;
58308;SDS011;44117;57.142;24.826;2022-12-28T02:01:50;12.50;;;3.80;;
58308;SDS011;44117;57.142;24.826;2022-12-28T02:04:17;13.00;;;4.28;;
58308;SDS011;44117;57.142;24.826;2022-12-28T02:06:45;16.35;;;4.72;;
58308;SDS011;44117;57.142;24.826;2022-12-28T02:09:16;14.05;;;4.97;;
58308;SDS011;44117;57.142;24.826;2022-12-28T02:11:51;13.63;;;3.85;;
58308;SDS011;44117;57.142;24.826;2022-12-28T02:14:19;10.55;;;3.28;;
58308;SDS011;44117;57.142;24.826;2022-12-28T02:16:47;14.60;;;3.45;;
58308;SDS011;44117;57.142;24.826;2022-12-28T02:19:16;13.18;;;3.08;;
58308;SDS011;44117;57.142;24.826;2022-12-28T02:30:14;11.02;;;2.72;;
58308;SDS011;44117;57.142;24.826;2022-12-28T02:38:47;8.57;;;2.10;;
58308;SDS011;44117;57.142;24.826;2022-12-28T02:41:20;17.20;;;2.92;;
58308;SDS011;44117;57.142;24.826;2022-12-28T02:43:51;8.82;;;2.58;;
58308;SDS011;44117;57.142;24.826;2022-12-28T02:49:21;12.43;;;2.50;;
58308;SDS011;44117;57.142;24.826;2022-12-28T03:06:50;7.22;;;1.90;;
58308;SDS011;44117;57.142;24.826;2022-12-28T03:15:22;13.13;;;2.00;;
58308;SDS011;44117;57.142;24.826;2022-12-28T03:20:57;15.80;;;3.83;;
58308;SDS011;44117;57.142;24.826;2022-12-28T03:23:47;14.27;;;3.80;;
58308;SDS011;44117;57.142;24.826;2022-12-28T03:26:37;15.50;;;4.53;;
58308;SDS011;44117;57.142;24.826;2022-12-28T03:29:27;10.93;;;4.72;;
58308;SDS011;44117;57.142;24.826;2022-12-28T03:32:15;18.27;;;4.85;;
58308;SDS011;44117;57.142;24.826;2022-12-28T03:34:42;15.65;;;4.85;;
58308;SDS011;44117;57.142;24.826;2022-12-28T03:39:50;13.57;;;4.72;;
58308;SDS011;44117;57.142;24.826;2022-12-28T03:42:42;11.50;;;4.88;;
58308;SDS011;44117;57.142;24.826;2022-12-28T03:48:15;13.32;;;4.97;;
58308;SDS011;44117;57.142;24.826;2022-12-28T03:50:44;14.68;;;3.13;;
58308;SDS011;44117;57.142;24.826;2022-12-28T03:53:14;11.85;;;4.40;;
58308;SDS011;44117;57.142;24.826;2022-12-28T03:55:43;11.70;;;3.15;;
58308;SDS011;44117;57.142;24.826;2022-12-28T03:58:10;17.33;;;4.82;;
58308;SDS011;44117;57.142;24.826;2022-12-28T04:00:38;10.95;;;3.65;;
58308;SDS011;44117;57.142;24.826;2022-12-28T04:03:05;13.98;;;4.15;;
58308;SDS011;44117;57.142;24.826;2022-12-28T04:05:32;11.23;;;3.33;;
58308;SDS011;44117;57.142;24.826;2022-12-28T04:08:00;8.90;;;3.63;;
58308;SDS011;44117;57.142;24.826;2022-12-28T04:10:27;6.93;;;3.10;;
58308;SDS011;44117;57.142;24.826;2022-12-28T04:12:54;12.95;;;4.97;;
58308;SDS011;44117;57.142;24.826;2022-12-28T04:15:22;14.18;;;3.92;;
58308;SDS011;44117;57.142;24.826;2022-12-28T04:17:49;14.38;;;4.22;;
58308;SDS011;44117;57.142;24.826;2022-12-28T04:20:16;12.82;;;2.90;;
58308;SDS011;44117;57.142;24.826;2022-12-28T04:22:43;11.52;;;2.58;;
58308;SDS011;44117;57.142;24.826;2022-12-28T04:25:11;15.88;;;3.08;;
58308;SDS011;44117;57.142;24.826;2022-12-28T04:27:38;10.07;;;2.45;;
58308;SDS011;44117;57.142;24.826;2022-12-28T04:30:05;8.68;;;3.10;;
58308;SDS011;44117;57.142;24.826;2022-12-28T04:32:33;14.05;;;2.95;;
58308;SDS011;44117;57.142;24.826;2022-12-28T04:35:01;15.82;;;4.63;;
58308;SDS011;44117;57.142;24.826;2022-12-28T04:37:28;13.43;;;4.15;;
58308;SDS011;44117;57.142;24.826;2022-12-28T04:39:55;18.10;;;4.90;;
58308;SDS011;44117;57.142;24.826;2022-12-28T04:42:23;15.77;;;6.32;;
58308;SDS011;44117;57.142;24.826;2022-12-28T04:44:51;21.25;;;6.65;;
58308;SDS011;44117;57.142;24.826;2022-12-28T04:47:18;11.00;;;3.28;;
58308;SDS011;44117;57.142;24.826;2022-12-28T04:49:46;22.25;;;6.90;;
58308;SDS011;44117;57.142;24.826;2022-12-28T04:52:13;20.30;;;10.40;;
58308;SDS011;44117;57.142;24.826;2022-12-28T04:54:40;14.07;;;7.35;;
58308;SDS011;44117;57.142;24.826;2022-12-28T04:57:07;27.73;;;11.00;;
58308;SDS011;44117;57.142;24.826;2022-12-28T04:59:34;17.02;;;6.30;;
58308;SDS011;44117;57.142;24.826;2022-12-28T05:02:02;10.52;;;3.90;;
58308;SDS011;44117;57.142;24.826;2022-12-28T05:04:29;13.30;;;3.95;;
58308;SDS011;44117;57.142;24.826;2022-12-28T05:06:56;15.90;;;3.90;;
58308;SDS011;44117;57.142;24.826;2022-12-28T05:09:23;23.90;;;14.13;;
58308;SDS011;44117;57.142;24.826;2022-12-28T05:11:51;51.28;;;20.30;;
58308;SDS011;44117;57.142;24.826;2022-12-28T05:14:18;50.70;;;26.55;;
58308;SDS011;44117;57.142;24.826;2022-12-28T05:16:45;37.85;;;18.05;;
58308;SDS011;44117;57.142;24.826;2022-12-28T05:19:16;40.70;;;17.67;;
58308;SDS011;44117;57.142;24.826;2022-12-28T05:21:43;65.47;;;31.10;;
58308;SDS011;44117;57.142;24.826;2022-12-28T05:24:11;20.10;;;8.20;;
58308;SDS011;44117;57.142;24.826;2022-12-28T05:26:38;23.45;;;11.07;;
58308;SDS011;44117;57.142;24.826;2022-12-28T05:29:05;26.27;;;6.30;;
58308;SDS011;44117;57.142;24.826;2022-12-28T05:31:32;24.00;;;5.28;;
58308;SDS011;44117;57.142;24.826;2022-12-28T05:33:59;14.82;;;4.00;;
58308;SDS011;44117;57.142;24.826;2022-12-28T05:36:27;16.92;;;4.47;;
58308;SDS011;44117;57.142;24.826;2022-12-28T05:38:54;13.30;;;4.95;;
58308;SDS011;44117;57.142;24.826;2022-12-28T05:41:23;15.38;;;3.38;;
58308;SDS011;44117;57.142;24.826;2022-12-28T05:43:51;29.25;;;9.32;;
58308;SDS011;44117;57.142;24.826;2022-12-28T05:46:20;25.85;;;5.22;;
58308;SDS011;44117;57.142;24.826;2022-12-28T05:48:50;15.15;;;3.63;;
58308;SDS011;44117;57.142;24.826;2022-12-28T05:51:20;20.08;;;4.20;;
58308;SDS011;44117;57.142;24.826;2022-12-28T05:53:48;19.27;;;5.40;;
58308;SDS011;44117;57.142;24.826;2022-12-28T05:56:17;18.17;;;4.05;;
58308;SDS011;44117;57.142;24.826;2022-12-28T05:58:46;9.32;;;2.70;;
58308;SDS011;44117;57.142;24.826;2022-12-28T06:01:21;19.52;;;5.53;;
58308;SDS011;44117;57.142;24.826;2022-12-28T06:04:00;28.80;;;8.88;;
58308;SDS011;44117;57.142;24.826;2022-12-28T06:06:29;13.25;;;3.47;;
58308;SDS011;44117;57.142;24.826;2022-12-28T06:08:56;16.65;;;4.47;;
58308;SDS011;44117;57.142;24.826;2022-12-28T06:11:24;28.80;;;13.45;;
58308;SDS011;44117;57.142;24.826;2022-12-28T06:13:52;18.10;;;3.20;;
58308;SDS011;44117;57.142;24.826;2022-12-28T06:16:22;20.23;;;6.10;;
58308;SDS011;44117;57.142;24.826;2022-12-28T06:18:51;15.02;;;4.32;;
58308;SDS011;44117;57.142;24.826;2022-12-28T06:21:23;17.15;;;4.82;;
58308;SDS011;44117;57.142;24.826;2022-12-28T06:23:52;17.73;;;4.85;;
58308;SDS011;44117;57.142;24.826;2022-12-28T06:26:23;19.98;;;6.07;;
58308;SDS011;44117;57.142;24.826;2022-12-28T06:28:52;15.00;;;4.00;;
58308;SDS011;44117;57.142;24.826;2022-12-28T06:31:19;11.27;;;3.65;;
58308;SDS011;44117;57.142;24.826;2022-12-28T06:33:53;17.50;;;5.20;;
58308;SDS011;44117;57.142;24.826;2022-12-28T06:36:23;19.55;;;5.18;;
58308;SDS011;44117;57.142;24.826;2022-12-28T06:38:53;15.65;;;4.50;;
58308;SDS011;44117;57.142;24.826;2022-12-28T06:41:22;10.23;;;4.53;;
58308;SDS011;44117;57.142;24.826;2022-12-28T06:43:49;17.75;;;5.63;;
58308;SDS011;44117;57.142;24.826;2022-12-28T06:46:18;14.52;;;3.42;;
58308;SDS011;44117;57.142;24.826;2022-12-28T06:48:46;14.93;;;4.43;;
58308;SDS011;44117;57.142;24.826;2022-12-28T06:51:24;21.42;;;4.55;;
58308;SDS011;44117;57.142;24.826;2022-12-28T06:53:56;21.05;;;4.32;;
58308;SDS011;44117;57.142;24.826;2022-12-28T06:56:25;15.75;;;4.05;;
58308;SDS011;44117;57.142;24.826;2022-12-28T06:58:57;15.35;;;5.85;;
58308;SDS011;44117;57.142;24.826;2022-12-28T07:01:36;21.58;;;5.40;;
58308;SDS011;44117;57.142;24.826;2022-12-28T07:04:06;20.73;;;4.82;;
58308;SDS011;44117;57.142;24.826;2022-12-28T07:06:35;17.95;;;5.28;;
58308;SDS011;44117;57.142;24.826;2022-12-28T07:09:06;18.60;;;6.32;;
58308;SDS011;44117;57.142;24.826;2022-12-28T07:11:35;20.85;;;5.70;;
58308;SDS011;44117;57.142;24.826;2022-12-28T07:14:02;26.17;;;8.65;;
58308;SDS011;44117;57.142;24.826;2022-12-28T07:16:29;16.27;;;7.00;;
58308;SDS011;44117;57.142;24.826;2022-12-28T07:18:57;24.48;;;6.22;;
58308;SDS011;44117;57.142;24.826;2022-12-28T07:21:26;20.35;;;5.93;;
58308;SDS011;44117;57.142;24.826;2022-12-28T07:23:55;28.42;;;9.23;;
58308;SDS011;44117;57.142;24.826;2022-12-28T07:26:24;17.42;;;3.55;;
58308;SDS011;44117;57.142;24.826;2022-12-28T07:28:56;18.20;;;5.97;;
58308;SDS011;44117;57.142;24.826;2022-12-28T07:31:28;23.48;;;5.95;;
58308;SDS011;44117;57.142;24.826;2022-12-28T07:34:02;18.02;;;5.97;;
58308;SDS011;44117;57.142;24.826;2022-12-28T07:36:30;20.35;;;5.50;;
58308;SDS011;44117;57.142;24.826;2022-12-28T07:38:58;21.25;;;7.43;;
58308;SDS011;44117;57.142;24.826;2022-12-28T07:41:30;28.30;;;7.45;;
58308;SDS011;44117;57.142;24.826;2022-12-28T07:43:59;25.45;;;6.63;;
58308;SDS011;44117;57.142;24.826;2022-12-28T07:46:30;18.75;;;6.63;;
58308;SDS011;44117;57.142;24.826;2022-12-28T07:48:59;16.88;;;5.22;;
58308;SDS011;44117;57.142;24.826;2022-12-28T07:51:27;14.77;;;4.65;;
58308;SDS011;44117;57.142;24.826;2022-12-28T07:53:58;16.48;;;3.65;;
58308;SDS011;44117;57.142;24.826;2022-12-28T07:56:26;16.77;;;4.25;;
58308;SDS011;44117;57.142;24.826;2022-12-28T07:58:56;22.65;;;5.53;;
58308;SDS011;44117;57.142;24.826;2022-12-28T08:01:26;16.75;;;4.03;;
58308;SDS011;44117;57.142;24.826;2022-12-28T08:03:56;19.02;;;4.00;;
58308;SDS011;44117;57.142;24.826;2022-12-28T08:06:26;19.80;;;3.67;;
58308;SDS011;44117;57.142;24.826;2022-12-28T08:08:54;20.60;;;4.45;;
58308;SDS011;44117;57.142;24.826;2022-12-28T08:11:25;13.73;;;3.88;;
58308;SDS011;44117;57.142;24.826;2022-12-28T08:13:55;18.55;;;4.35;;
58308;SDS011;44117;57.142;24.826;2022-12-28T08:16:23;17.90;;;3.72;;
58308;SDS011;44117;57.142;24.826;2022-12-28T08:18:52;16.27;;;4.57;;
58308;SDS011;44117;57.142;24.826;2022-12-28T08:21:25;19.73;;;5.15;;
58308;SDS011;44117;57.142;24.826;2022-12-28T08:23:56;13.57;;;4.63;;
58308;SDS011;44117;57.142;24.826;2022-12-28T08:26:25;15.05;;;4.72;;
58308;SDS011;44117;57.142;24.826;2022-12-28T08:29:04;18.48;;;5.53;;
58308;SDS011;44117;57.142;24.826;2022-12-28T08:31:35;22.58;;;4.00;;
58308;SDS011;44117;57.142;24.826;2022-12-28T08:34:05;14.80;;;5.45;;
58308;SDS011;44117;57.142;24.826;2022-12-28T08:36:34;11.73;;;3.58;;
58308;SDS011;44117;57.142;24.826;2022-12-28T08:39:01;14.18;;;4.30;;
58308;SDS011;44117;57.142;24.826;2022-12-28T08:41:29;18.63;;;4.10;;
58308;SDS011;44117;57.142;24.826;2022-12-28T08:43:57;17.63;;;4.60;;
58308;SDS011;44117;57.142;24.826;2022-12-28T08:46:26;18.08;;;6.22;;
58308;SDS011;44117;57.142;24.826;2022-12-28T08:48:55;16.73;;;4.88;;
58308;SDS011;44117;57.142;24.826;2022-12-28T08:51:26;18.08;;;5.28;;
58308;SDS011;44117;57.142;24.826;2022-12-28T08:56:27;18.00;;;6.10;;
58308;SDS011;44117;57.142;24.826;2022-12-28T08:58:59;17.88;;;6.03;;
58308;SDS011;44117;57.142;24.826;2022-12-28T09:01:31;15.77;;;5.50;;
58308;SDS011;44117;57.142;24.826;2022-12-28T09:04:16;15.45;;;6.22;;
58308;SDS011;44117;57.142;24.826;2022-12-28T09:06:45;19.80;;;6.57;;
58308;SDS011;44117;57.142;24.826;2022-12-28T09:09:13;23.95;;;6.93;;
58308;SDS011;44117;57.142;24.826;2022-12-28T09:11:42;19.58;;;4.60;;
58308;SDS011;44117;57.142;24.826;2022-12-28T09:14:11;17.25;;;7.45;;
58308;SDS011;44117;57.142;24.826;2022-12-28T09:16:47;23.23;;;8.40;;
58308;SDS011;44117;57.142;24.826;2022-12-28T09:19:14;25.15;;;8.05;;
58308;SDS011;44117;57.142;24.826;2022-12-28T09:21:42;21.92;;;7.72;;
58308;SDS011;44117;57.142;24.826;2022-12-28T09:24:11;21.83;;;6.53;;
58308;SDS011;44117;57.142;24.826;2022-12-28T09:26:39;19.60;;;7.80;;
58308;SDS011;44117;57.142;24.826;2022-12-28T09:29:07;24.52;;;9.05;;
58308;SDS011;44117;57.142;24.826;2022-12-28T09:31:36;19.80;;;7.65;;
58308;SDS011;44117;57.142;24.826;2022-12-28T09:34:06;22.88;;;8.18;;
58308;SDS011;44117;57.142;24.826;2022-12-28T09:36:56;20.38;;;9.65;;
58308;SDS011;44117;57.142;24.826;2022-12-28T09:39:25;23.17;;;10.15;;
58308;SDS011;44117;57.142;24.826;2022-12-28T09:52:40;18.40;;;9.73;;
58308;SDS011;44117;57.142;24.826;2022-12-28T09:55:16;18.73;;;9.18;;
58308;SDS011;44117;57.142;24.826;2022-12-28T09:57:46;23.27;;;7.15;;
58308;SDS011;44117;57.142;24.826;2022-12-28T10:00:22;20.60;;;7.40;;
58308;SDS011;44117;57.142;24.826;2022-12-28T10:03:00;21.42;;;9.27;;
58308;SDS011;44117;57.142;24.826;2022-12-28T10:05:36;17.15;;;8.98;;
58308;SDS011;44117;57.142;24.826;2022-12-28T10:08:03;24.45;;;8.13;;
58308;SDS011;44117;57.142;24.826;2022-12-28T10:10:31;52.33;;;24.98;;
58308;SDS011;44117;57.142;24.826;2022-12-28T10:13:00;28.05;;;11.18;;
58308;SDS011;44117;57.142;24.826;2022-12-28T10:15:57;23.83;;;9.57;;
58308;SDS011;44117;57.142;24.826;2022-12-28T10:18:25;20.77;;;7.57;;
58308;SDS011;44117;57.142;24.826;2022-12-28T10:20:53;20.30;;;8.00;;
58308;SDS011;44117;57.142;24.826;2022-12-28T10:23:23;17.17;;;6.45;;
58308;SDS011;44117;57.142;24.826;2022-12-28T10:25:55;18.90;;;7.25;;
58308;SDS011;44117;57.142;24.826;2022-12-28T10:28:26;18.10;;;7.60;;
58308;SDS011;44117;57.142;24.826;2022-12-28T10:33:57;16.55;;;5.95;;
58308;SDS011;44117;57.142;24.826;2022-12-28T10:36:25;19.38;;;6.45;;
58308;SDS011;44117;57.142;24.826;2022-12-28T10:38:57;17.38;;;6.97;;
58308;SDS011;44117;57.142;24.826;2022-12-28T10:41:31;16.38;;;7.18;;
58308;SDS011;44117;57.142;24.826;2022-12-28T10:47:23;23.98;;;10.45;;
58308;SDS011;44117;57.142;24.826;2022-12-28T10:49:55;16.33;;;8.75;;
58308;SDS011;44117;57.142;24.826;2022-12-28T10:52:47;27.40;;;12.57;;
58308;SDS011;44117;57.142;24.826;2022-12-28T10:55:32;43.97;;;19.20;;
58308;SDS011;44117;57.142;24.826;2022-12-28T10:58:18;29.13;;;12.20;;
58308;SDS011;44117;57.142;24.826;2022-12-28T11:00:58;45.22;;;22.77;;
58308;SDS011;44117;57.142;24.826;2022-12-28T11:09:04;24.70;;;10.55;;
58308;SDS011;44117;57.142;24.826;2022-12-28T11:11:43;35.90;;;14.98;;
58308;SDS011;44117;57.142;24.826;2022-12-28T11:14:25;20.40;;;9.25;;
58308;SDS011;44117;57.142;24.826;2022-12-28T11:16:56;28.73;;;12.05;;
58308;SDS011;44117;57.142;24.826;2022-12-28T11:19:30;20.52;;;7.97;;
58308;SDS011;44117;57.142;24.826;2022-12-28T11:21:57;16.58;;;7.75;;
58308;SDS011;44117;57.142;24.826;2022-12-28T11:24:24;17.05;;;7.55;;
58308;SDS011;44117;57.142;24.826;2022-12-28T11:26:53;29.35;;;11.27;;
58308;SDS011;44117;57.142;24.826;2022-12-28T11:29:20;23.25;;;11.75;;
58308;SDS011;44117;57.142;24.826;2022-12-28T11:31:54;25.80;;;11.38;;
58308;SDS011;44117;57.142;24.826;2022-12-28T11:34:27;21.60;;;8.50;;
58308;SDS011;44117;57.142;24.826;2022-12-28T11:36:56;12.35;;;4.90;;
58308;SDS011;44117;57.142;24.826;2022-12-28T11:41:52;16.55;;;8.73;;
58308;SDS011;44117;57.142;24.826;2022-12-28T11:49:53;25.50;;;9.80;;
58308;SDS011;44117;57.142;24.826;2022-12-28T11:55:00;20.15;;;8.15;;
58308;SDS011;44117;57.142;24.826;2022-12-28T11:57:48;16.55;;;6.82;;
58308;SDS011;44117;57.142;24.826;2022-12-28T12:02:52;26.67;;;7.47;;
58308;SDS011;44117;57.142;24.826;2022-12-28T12:06:09;15.18;;;7.25;;
58308;SDS011;44117;57.142;24.826;2022-12-28T12:13:51;22.77;;;8.43;;
58308;SDS011;44117;57.142;24.826;2022-12-28T12:16:21;19.50;;;10.15;;
58308;SDS011;44117;57.142;24.826;2022-12-28T12:18:54;21.35;;;8.35;;
58308;SDS011;44117;57.142;24.826;2022-12-28T12:26:54;12.63;;;6.05;;
58308;SDS011;44117;57.142;24.826;2022-12-28T12:29:29;19.60;;;6.75;;
58308;SDS011;44117;57.142;24.826;2022-12-28T12:32:03;16.92;;;8.10;;
58308;SDS011;44117;57.142;24.826;2022-12-28T12:43:03;20.02;;;8.25;;
58308;SDS011;44117;57.142;24.826;2022-12-28T12:51:00;16.55;;;9.65;;
58308;SDS011;44117;57.142;24.826;2022-12-28T13:04:47;24.65;;;8.18;;
58308;SDS011;44117;57.142;24.826;2022-12-28T13:07:24;18.88;;;5.57;;
58308;SDS011;44117;57.142;24.826;2022-12-28T13:09:53;11.55;;;5.25;;
58308;SDS011;44117;57.142;24.826;2022-12-28T13:12:24;11.60;;;6.30;;
58308;SDS011;44117;57.142;24.826;2022-12-28T13:14:56;16.92;;;6.05;;
58308;SDS011;44117;57.142;24.826;2022-12-28T13:17:35;12.80;;;4.82;;
58308;SDS011;44117;57.142;24.826;2022-12-28T13:20:19;9.73;;;4.35;;
58308;SDS011;44117;57.142;24.826;2022-12-28T13:22:47;11.13;;;4.53;;
58308;SDS011;44117;57.142;24.826;2022-12-28T13:25:31;12.50;;;5.35;;
58308;SDS011;44117;57.142;24.826;2022-12-28T13:28:00;11.15;;;5.30;;
58308;SDS011;44117;57.142;24.826;2022-12-28T13:30:29;8.50;;;5.05;;
58308;SDS011;44117;57.142;24.826;2022-12-28T13:33:00;10.55;;;5.32;;
58308;SDS011;44117;57.142;24.826;2022-12-28T13:35:31;11.63;;;5.47;;
58308;SDS011;44117;57.142;24.826;2022-12-28T13:40:38;12.23;;;5.28;;
58308;SDS011;44117;57.142;24.826;2022-12-28T13:43:16;13.20;;;4.70;;
58308;SDS011;44117;57.142;24.826;2022-12-28T13:45:51;12.20;;;5.05;;
58308;SDS011;44117;57.142;24.826;2022-12-28T13:48:23;10.70;;;5.10;;
58308;SDS011;44117;57.142;24.826;2022-12-28T13:50:51;11.88;;;6.28;;
58308;SDS011;44117;57.142;24.826;2022-12-28T13:53:20;15.18;;;7.35;;
58308;SDS011;44117;57.142;24.826;2022-12-28T13:55:53;19.30;;;7.10;;
58308;SDS011;44117;57.142;24.826;2022-12-28T13:58:29;19.75;;;8.75;;
58308;SDS011;44117;57.142;24.826;2022-12-28T14:00:58;17.27;;;8.60;;
58308;SDS011;44117;57.142;24.826;2022-12-28T14:03:28;17.05;;;7.38;;
58308;SDS011;44117;57.142;24.826;2022-12-28T14:06:05;18.02;;;6.82;;
58308;SDS011;44117;57.142;24.826;2022-12-28T14:08:34;9.98;;;6.82;;
58308;SDS011;44117;57.142;24.826;2022-12-28T14:11:03;19.48;;;7.45;;
58308;SDS011;44117;57.142;24.826;2022-12-28T14:13:32;17.42;;;8.93;;
58308;SDS011;44117;57.142;24.826;2022-12-28T14:16:00;18.05;;;8.32;;
58308;SDS011;44117;57.142;24.826;2022-12-28T14:18:29;12.35;;;6.63;;
58308;SDS011;44117;57.142;24.826;2022-12-28T14:20:59;16.77;;;7.88;;
58308;SDS011;44117;57.142;24.826;2022-12-28T14:23:29;16.30;;;8.55;;
58308;SDS011;44117;57.142;24.826;2022-12-28T14:25:59;19.20;;;10.55;;
58308;SDS011;44117;57.142;24.826;2022-12-28T14:28:33;19.92;;;8.88;;
58308;SDS011;44117;57.142;24.826;2022-12-28T14:31:01;16.02;;;9.18;;
58308;SDS011;44117;57.142;24.826;2022-12-28T14:33:32;15.80;;;10.73;;
58308;SDS011;44117;57.142;24.826;2022-12-28T14:36:04;21.38;;;11.20;;
58308;SDS011;44117;57.142;24.826;2022-12-28T14:38:34;22.40;;;11.82;;
58308;SDS011;44117;57.142;24.826;2022-12-28T14:41:05;20.08;;;9.38;;
58308;SDS011;44117;57.142;24.826;2022-12-28T14:43:33;19.55;;;8.18;;
58308;SDS011;44117;57.142;24.826;2022-12-28T14:46:49;15.32;;;10.13;;
58308;SDS011;44117;57.142;24.826;2022-12-28T14:51:54;14.02;;;7.95;;
58308;SDS011;44117;57.142;24.826;2022-12-28T14:57:00;13.80;;;8.45;;
58308;SDS011;44117;57.142;24.826;2022-12-28T14:59:31;18.65;;;9.98;;
58308;SDS011;44117;57.142;24.826;2022-12-28T15:02:03;35.13;;;18.48;;
58308;SDS011;44117;57.142;24.826;2022-12-28T15:04:36;20.77;;;11.40;;
58308;SDS011;44117;57.142;24.826;2022-12-28T15:07:06;15.95;;;9.68;;
58308;SDS011;44117;57.142;24.826;2022-12-28T15:09:35;19.10;;;10.50;;
58308;SDS011;44117;57.142;24.826;2022-12-28T15:12:13;12.18;;;7.88;;
58308;SDS011;44117;57.142;24.826;2022-12-28T15:14:50;13.77;;;8.20;;
58308;SDS011;44117;57.142;24.826;2022-12-28T15:17:18;28.92;;;14.52;;
58308;SDS011;44117;57.142;24.826;2022-12-28T15:19:45;25.05;;;13.85;;
58308;SDS011;44117;57.142;24.826;2022-12-28T15:22:12;25.80;;;16.55;;
58308;SDS011;44117;57.142;24.826;2022-12-28T15:24:40;23.15;;;16.58;;
58308;SDS011;44117;57.142;24.826;2022-12-28T15:27:11;18.48;;;12.10;;
58308;SDS011;44117;57.142;24.826;2022-12-28T15:29:38;18.55;;;11.50;;
58308;SDS011;44117;57.142;24.826;2022-12-28T15:32:25;21.17;;;12.90;;
58308;SDS011;44117;57.142;24.826;2022-12-28T15:34:53;19.08;;;12.57;;
58308;SDS011;44117;57.142;24.826;2022-12-28T15:37:20;24.17;;;16.88;;
58308;SDS011;44117;57.142;24.826;2022-12-28T15:39:48;21.70;;;14.40;;
58308;SDS011;44117;57.142;24.826;2022-12-28T15:42:15;17.27;;;10.40;;
58308;SDS011;44117;57.142;24.826;2022-12-28T15:44:42;17.75;;;10.88;;
58308;SDS011;44117;57.142;24.826;2022-12-28T15:47:11;17.05;;;10.80;;
58308;SDS011;44117;57.142;24.826;2022-12-28T15:49:39;19.58;;;10.48;;
58308;SDS011;44117;57.142;24.826;2022-12-28T15:52:06;15.85;;;9.57;;
58308;SDS011;44117;57.142;24.826;2022-12-28T15:54:33;27.63;;;18.35;;
58308;SDS011;44117;57.142;24.826;2022-12-28T15:57:01;20.80;;;13.93;;
58308;SDS011;44117;57.142;24.826;2022-12-28T15:59:28;19.50;;;13.35;;
58308;SDS011;44117;57.142;24.826;2022-12-28T16:01:55;17.33;;;12.30;;
58308;SDS011;44117;57.142;24.826;2022-12-28T16:04:23;17.92;;;11.48;;
58308;SDS011;44117;57.142;24.826;2022-12-28T16:06:50;20.50;;;11.30;;
58308;SDS011;44117;57.142;24.826;2022-12-28T16:09:17;21.63;;;11.25;;
58308;SDS011;44117;57.142;24.826;2022-12-28T16:11:45;18.85;;;11.13;;
58308;SDS011;44117;57.142;24.826;2022-12-28T16:14:20;17.60;;;10.68;;
58308;SDS011;44117;57.142;24.826;2022-12-28T16:16:47;20.13;;;9.60;;
58308;SDS011;44117;57.142;24.826;2022-12-28T16:19:15;17.98;;;11.05;;
58308;SDS011;44117;57.142;24.826;2022-12-28T16:21:42;18.25;;;11.05;;
58308;SDS011;44117;57.142;24.826;2022-12-28T16:24:10;25.80;;;14.30;;
58308;SDS011;44117;57.142;24.826;2022-12-28T16:26:37;25.27;;;14.43;;
58308;SDS011;44117;57.142;24.826;2022-12-28T16:29:05;23.00;;;12.88;;
58308;SDS011;44117;57.142;24.826;2022-12-28T16:31:33;25.15;;;13.35;;
58308;SDS011;44117;57.142;24.826;2022-12-28T16:34:03;24.17;;;14.35;;
58308;SDS011;44117;57.142;24.826;2022-12-28T16:39:03;23.23;;;13.57;;
58308;SDS011;44117;57.142;24.826;2022-12-28T16:41:33;26.95;;;15.88;;
58308;SDS011;44117;57.142;24.826;2022-12-28T16:44:09;27.13;;;14.70;;
58308;SDS011;44117;57.142;24.826;2022-12-28T16:46:43;25.95;;;14.65;;
58308;SDS011;44117;57.142;24.826;2022-12-28T16:49:10;27.48;;;13.00;;
58308;SDS011;44117;57.142;24.826;2022-12-28T16:51:39;25.20;;;14.48;;
58308;SDS011;44117;57.142;24.826;2022-12-28T16:54:09;26.23;;;14.48;;
58308;SDS011;44117;57.142;24.826;2022-12-28T16:56:42;27.38;;;13.45;;